New Holland, South Carolina
Current Conditions -  °F | °C
As of 2:35 AM on Monday 22 Dec 2014 (Local Time) from KAIK Reporting Station
Drizzle Drizzle  
Wind Chill: 40°   Ceiling: 400
Heat Index: 45°   Visibility: 5mi
Dew Point: 45°   Wind: 9mph
Humidity: 100%   Direction: 50°NE
Pressure: 30.11"   Gusts: NA
Location:  33.6528°N, 81.4253°W
Report Text: KAIK 220735Z AUTO 05008KT 5SM -DZ BKN004 OVC009 07/07 A3011 RMK AO2 PNO
Loading
Personal Weather Stations






























Interactive Weather Map New forecast layout! Learn more

10-Day Weather Forecast

Advertisements
Track Severe Weather on mobile